Longview, WA

2:39 PM PDT on August 21, 2014 (GMT -0700)
Columbia Crest Estates | Change Station
CLOSE
Current Station
Personal Weather Station
Location: Kalama, WA
Elevation: 945 ft
Nearby Weather Stations

Elev 945 ft 45.96 °N, 122.77 °W | Updated 2 seconds ago

Clear
Clear
79.9 °F
Feels Like 80 °F
N
3.5
Wind Variable Wind from West
Gusts 3.5 mph

Today
High -- | Low -- °F
--% Chance of Precip.
Yesterday
High -- | Low -- °F
Precip. -- in
6:19 AM 8:10 PM
Waning Crescent, 12% visible
Pressure 30.04 in
Visibility 10.0 miles
Clouds Clear
Heat Index 80 °F
Dew Point 55 °F
Humidity 42%
Rainfall 0.00 in
Snow Depth Not available.
UV 8 out of 12
Pollen 3.80 out of 12
Air Quality Not available.
Flu Activity Not available.
METAR KKLS 212135Z AUTO 29003KT 10SM CLR 23/09 A3004 RMK AO1

More Conditions Fewer Conditions

Pressure 30.04 in
Visibility 10.0 miles
Clouds Clear
Heat Index 80 °F
Dew Point 55 °F
Humidity 42%
Rainfall 0.00 in
Snow Depth Not available.
UV 8 out of 12
Pollen 3.80 out of 12
Air Quality Not available.
Flu Activity Not available.
METAR KKLS 212135Z AUTO 29003KT 10SM CLR 23/09 A3004 RMK AO1

More Conditions Fewer Conditions

10-Day Weather Forecast

Almanac

Astronomy

Aug. 21, 2014 Rise Set
Actual Time 6:19 AM PDT 8:10 PM PDT
Civil Twilight 5:46 AM PDT 8:42 PM PDT
Nautical Twilight 5:07 AM PDT 9:21 PM PDT
Astronomical Twilight 4:24 AM PDT 10:04 PM PDT
Moon 2:48 AM PDT 5:47 PM PDT
Length of Visible Light 14h 55m
Length of Day
13h 51m
Tomorrow will be 3m 1s shorter.
Waning Crescent, 12% of the Moon is Illuminated
Today
Waning Crescent
Aug 25
New
Sep 2
First Quarter
Sep 8
Full
Sep 15
Last Quarter

Today's Extremes

State Highs State Lows

Community

WunderPhotos

Upload Photos

1,746,021 photos uploaded!

WunderBlogs® & News

Nearby

Snow Depth

Station Depth Elevation
Swift Creek 0 in 3770 ft
Spirit Lake 0 in 3120 ft
June Lake 0 in 3340 ft
Lone Pine 0 in 3800 ft
Spencer Meadow 0 in 3400 ft

Earthquake Activity

City Distance Mag. Time & Date
No recent earthquake activity has been reported nearby.
Minimum magnitude displayed is 2.5.

Coastal Water Temperatures

Place Temperature
Astoria, OR 66.9 °F
Westport, WA 55.9 °F

Nearby Weather Stations